sensor_id;sensor_type;location;lat;lon;timestamp;P1;durP1;ratioP1;P2;durP2;ratioP2
59828;SDS011;45708;51.848;107.620;2022-12-31T00:03:13;6.87;;;1.90;;
59828;SDS011;45708;51.848;107.620;2022-12-31T00:08:14;13.33;;;5.47;;
59828;SDS011;45708;51.848;107.620;2022-12-31T00:13:15;9.37;;;8.43;;
59828;SDS011;45708;51.848;107.620;2022-12-31T00:18:16;11.93;;;8.10;;
59828;SDS011;45708;51.848;107.620;2022-12-31T00:23:17;1.60;;;0.90;;
59828;SDS011;45708;51.848;107.620;2022-12-31T00:28:18;3.43;;;3.10;;
59828;SDS011;45708;51.848;107.620;2022-12-31T00:33:19;3.73;;;3.40;;
59828;SDS011;45708;51.848;107.620;2022-12-31T00:38:20;4.80;;;4.40;;
59828;SDS011;45708;51.848;107.620;2022-12-31T00:43:22;5.90;;;5.57;;
59828;SDS011;45708;51.848;107.620;2022-12-31T00:48:22;14.53;;;9.40;;
59828;SDS011;45708;51.848;107.620;2022-12-31T00:53:23;2.47;;;2.37;;
59828;SDS011;45708;51.848;107.620;2022-12-31T00:58:25;3.47;;;1.97;;
59828;SDS011;45708;51.848;107.620;2022-12-31T01:03:27;6.37;;;3.87;;
59828;SDS011;45708;51.848;107.620;2022-12-31T01:08:27;22.97;;;5.93;;
59828;SDS011;45708;51.848;107.620;2022-12-31T01:13:28;4.27;;;4.10;;
59828;SDS011;45708;51.848;107.620;2022-12-31T01:18:29;2.77;;;2.57;;
59828;SDS011;45708;51.848;107.620;2022-12-31T01:23:30;4.73;;;4.40;;
59828;SDS011;45708;51.848;107.620;2022-12-31T01:28:31;2.30;;;2.10;;
59828;SDS011;45708;51.848;107.620;2022-12-31T01:33:34;10.90;;;4.27;;
59828;SDS011;45708;51.848;107.620;2022-12-31T01:38:35;3.03;;;2.83;;
59828;SDS011;45708;51.848;107.620;2022-12-31T01:43:55;5.00;;;3.20;;
59828;SDS011;45708;51.848;107.620;2022-12-31T01:48:59;4.33;;;3.17;;
59828;SDS011;45708;51.848;107.620;2022-12-31T01:54:05;13.23;;;8.07;;
59828;SDS011;45708;51.848;107.620;2022-12-31T01:59:09;1.40;;;1.30;;
59828;SDS011;45708;51.848;107.620;2022-12-31T02:04:12;1.73;;;1.57;;
59828;SDS011;45708;51.848;107.620;2022-12-31T02:09:15;7.83;;;2.57;;
59828;SDS011;45708;51.848;107.620;2022-12-31T02:14:22;4.50;;;3.80;;
59828;SDS011;45708;51.848;107.620;2022-12-31T02:19:36;7.40;;;3.78;;
59828;SDS011;45708;51.848;107.620;2022-12-31T02:30:16;1.23;;;0.80;;
59828;SDS011;45708;51.848;107.620;2022-12-31T02:40:46;5.63;;;3.80;;
59828;SDS011;45708;51.848;107.620;2022-12-31T02:45:49;3.97;;;3.67;;
59828;SDS011;45708;51.848;107.620;2022-12-31T02:51:15;3.30;;;1.90;;
59828;SDS011;45708;51.848;107.620;2022-12-31T03:02:19;1.83;;;1.73;;
59828;SDS011;45708;51.848;107.620;2022-12-31T03:07:31;4.43;;;3.90;;
59828;SDS011;45708;51.848;107.620;2022-12-31T03:12:32;6.13;;;3.33;;
59828;SDS011;45708;51.848;107.620;2022-12-31T03:17:34;4.03;;;3.77;;
59828;SDS011;45708;51.848;107.620;2022-12-31T03:22:37;1.33;;;1.23;;
59828;SDS011;45708;51.848;107.620;2022-12-31T03:27:41;2.37;;;2.27;;
59828;SDS011;45708;51.848;107.620;2022-12-31T03:32:42;6.07;;;2.60;;
59828;SDS011;45708;51.848;107.620;2022-12-31T03:37:44;1.73;;;1.20;;
59828;SDS011;45708;51.848;107.620;2022-12-31T03:42:46;3.90;;;1.53;;
59828;SDS011;45708;51.848;107.620;2022-12-31T03:47:47;3.83;;;3.57;;
59828;SDS011;45708;51.848;107.620;2022-12-31T03:52:48;2.40;;;2.30;;
59828;SDS011;45708;51.848;107.620;2022-12-31T03:57:49;2.47;;;2.27;;
59828;SDS011;45708;51.848;107.620;2022-12-31T04:02:51;2.37;;;1.27;;
59828;SDS011;45708;51.848;107.620;2022-12-31T04:07:52;2.43;;;2.23;;
59828;SDS011;45708;51.848;107.620;2022-12-31T04:12:53;3.00;;;2.17;;
59828;SDS011;45708;51.848;107.620;2022-12-31T04:17:54;5.80;;;4.50;;
59828;SDS011;45708;51.848;107.620;2022-12-31T04:22:54;1.50;;;1.43;;
59828;SDS011;45708;51.848;107.620;2022-12-31T04:27:55;4.60;;;4.00;;
59828;SDS011;45708;51.848;107.620;2022-12-31T04:32:56;6.30;;;3.60;;
59828;SDS011;45708;51.848;107.620;2022-12-31T04:37:57;3.10;;;1.87;;
59828;SDS011;45708;51.848;107.620;2022-12-31T04:42:59;3.27;;;3.00;;
59828;SDS011;45708;51.848;107.620;2022-12-31T04:47:59;3.37;;;2.17;;
59828;SDS011;45708;51.848;107.620;2022-12-31T04:53:00;1.03;;;1.03;;
59828;SDS011;45708;51.848;107.620;2022-12-31T04:58:01;2.10;;;2.00;;
59828;SDS011;45708;51.848;107.620;2022-12-31T05:03:02;2.90;;;2.63;;
59828;SDS011;45708;51.848;107.620;2022-12-31T05:08:03;4.87;;;4.37;;
59828;SDS011;45708;51.848;107.620;2022-12-31T05:13:04;8.93;;;4.43;;
59828;SDS011;45708;51.848;107.620;2022-12-31T05:18:05;1.23;;;1.23;;
59828;SDS011;45708;51.848;107.620;2022-12-31T05:23:06;31.83;;;11.67;;
59828;SDS011;45708;51.848;107.620;2022-12-31T05:28:07;7.70;;;6.97;;
59828;SDS011;45708;51.848;107.620;2022-12-31T05:33:08;20.63;;;9.87;;
59828;SDS011;45708;51.848;107.620;2022-12-31T05:38:09;13.73;;;8.63;;
59828;SDS011;45708;51.848;107.620;2022-12-31T05:43:10;13.83;;;8.07;;
59828;SDS011;45708;51.848;107.620;2022-12-31T05:48:11;31.53;;;11.87;;
59828;SDS011;45708;51.848;107.620;2022-12-31T05:53:12;9.40;;;8.33;;
59828;SDS011;45708;51.848;107.620;2022-12-31T05:58:13;14.13;;;6.43;;
59828;SDS011;45708;51.848;107.620;2022-12-31T06:03:14;13.77;;;6.90;;
59828;SDS011;45708;51.848;107.620;2022-12-31T06:08:15;21.93;;;10.13;;
59828;SDS011;45708;51.848;107.620;2022-12-31T06:13:16;10.70;;;5.90;;
59828;SDS011;45708;51.848;107.620;2022-12-31T06:18:17;21.80;;;9.03;;
59828;SDS011;45708;51.848;107.620;2022-12-31T06:23:18;11.30;;;10.10;;
59828;SDS011;45708;51.848;107.620;2022-12-31T06:28:19;13.60;;;10.30;;
59828;SDS011;45708;51.848;107.620;2022-12-31T06:33:20;7.47;;;5.90;;
59828;SDS011;45708;51.848;107.620;2022-12-31T06:38:20;8.80;;;5.43;;
59828;SDS011;45708;51.848;107.620;2022-12-31T06:43:22;19.67;;;8.00;;
59828;SDS011;45708;51.848;107.620;2022-12-31T06:48:23;9.20;;;5.90;;
59828;SDS011;45708;51.848;107.620;2022-12-31T06:53:24;12.87;;;9.27;;
59828;SDS011;45708;51.848;107.620;2022-12-31T06:58:24;13.73;;;7.10;;
59828;SDS011;45708;51.848;107.620;2022-12-31T07:03:29;14.13;;;9.97;;
59828;SDS011;45708;51.848;107.620;2022-12-31T07:24:39;22.63;;;15.13;;
59828;SDS011;45708;51.848;107.620;2022-12-31T07:45:51;41.63;;;24.47;;
59828;SDS011;45708;51.848;107.620;2022-12-31T07:51:04;47.70;;;27.07;;
59828;SDS011;45708;51.848;107.620;2022-12-31T07:56:06;42.47;;;24.37;;
59828;SDS011;45708;51.848;107.620;2022-12-31T08:01:10;34.17;;;22.37;;
59828;SDS011;45708;51.848;107.620;2022-12-31T08:11:40;29.23;;;21.43;;
59828;SDS011;45708;51.848;107.620;2022-12-31T08:16:54;29.30;;;19.60;;
59828;SDS011;45708;51.848;107.620;2022-12-31T08:27:03;25.60;;;16.47;;
59828;SDS011;45708;51.848;107.620;2022-12-31T08:32:34;23.70;;;13.93;;
59828;SDS011;45708;51.848;107.620;2022-12-31T08:43:18;26.67;;;11.80;;
59828;SDS011;45708;51.848;107.620;2022-12-31T08:48:45;23.13;;;13.80;;
59828;SDS011;45708;51.848;107.620;2022-12-31T08:53:46;26.20;;;21.40;;
59828;SDS011;45708;51.848;107.620;2022-12-31T08:58:51;18.07;;;10.67;;
59828;SDS011;45708;51.848;107.620;2022-12-31T09:04:23;8.93;;;8.07;;
59828;SDS011;45708;51.848;107.620;2022-12-31T09:20:40;6.00;;;5.43;;
59828;SDS011;45708;51.848;107.620;2022-12-31T09:25:56;11.23;;;6.30;;
59828;SDS011;45708;51.848;107.620;2022-12-31T09:31:14;11.13;;;8.60;;
59828;SDS011;45708;51.848;107.620;2022-12-31T09:36:23;7.50;;;5.53;;
59828;SDS011;45708;51.848;107.620;2022-12-31T09:52:52;22.33;;;12.73;;
59828;SDS011;45708;51.848;107.620;2022-12-31T10:13:52;10.17;;;9.37;;
59828;SDS011;45708;51.848;107.620;2022-12-31T10:24:56;29.73;;;10.73;;
59828;SDS011;45708;51.848;107.620;2022-12-31T10:30:23;23.50;;;15.93;;
59828;SDS011;45708;51.848;107.620;2022-12-31T10:56:48;17.57;;;11.70;;
59828;SDS011;45708;51.848;107.620;2022-12-31T11:12:38;14.10;;;12.65;;
59828;SDS011;45708;51.848;107.620;2022-12-31T11:28:41;32.30;;;23.50;;
59828;SDS011;45708;51.848;107.620;2022-12-31T11:50:41;60.03;;;40.33;;
59828;SDS011;45708;51.848;107.620;2022-12-31T12:06:44;43.40;;;27.67;;
59828;SDS011;45708;51.848;107.620;2022-12-31T12:11:45;19.87;;;16.83;;
59828;SDS011;45708;51.848;107.620;2022-12-31T12:16:56;67.83;;;37.93;;
59828;SDS011;45708;51.848;107.620;2022-12-31T12:21:58;38.53;;;24.67;;
59828;SDS011;45708;51.848;107.620;2022-12-31T12:27:23;64.13;;;31.57;;
59828;SDS011;45708;51.848;107.620;2022-12-31T12:37:57;60.03;;;20.70;;
59828;SDS011;45708;51.848;107.620;2022-12-31T12:43:02;23.87;;;21.33;;
59828;SDS011;45708;51.848;107.620;2022-12-31T12:48:05;10.83;;;8.97;;
59828;SDS011;45708;51.848;107.620;2022-12-31T12:59:00;45.67;;;26.60;;
59828;SDS011;45708;51.848;107.620;2022-12-31T13:09:17;73.40;;;37.83;;
59828;SDS011;45708;51.848;107.620;2022-12-31T13:20:40;36.57;;;24.03;;
59828;SDS011;45708;51.848;107.620;2022-12-31T13:25:51;24.90;;;15.97;;
59828;SDS011;45708;51.848;107.620;2022-12-31T13:31:04;26.93;;;14.60;;
59828;SDS011;45708;51.848;107.620;2022-12-31T13:36:15;18.67;;;15.65;;
59828;SDS011;45708;51.848;107.620;2022-12-31T13:41:24;12.10;;;8.32;;
59828;SDS011;45708;51.848;107.620;2022-12-31T13:51:40;14.10;;;12.67;;
59828;SDS011;45708;51.848;107.620;2022-12-31T14:01:51;27.30;;;13.73;;
59828;SDS011;45708;51.848;107.620;2022-12-31T14:27:23;10.80;;;9.63;;
59828;SDS011;45708;51.848;107.620;2022-12-31T14:37:55;10.33;;;9.27;;
59828;SDS011;45708;51.848;107.620;2022-12-31T14:54:49;15.83;;;9.83;;
59828;SDS011;45708;51.848;107.620;2022-12-31T14:59:56;8.57;;;6.22;;
59828;SDS011;45708;51.848;107.620;2022-12-31T15:05:14;14.00;;;6.57;;
59828;SDS011;45708;51.848;107.620;2022-12-31T15:10:21;20.47;;;11.83;;
59828;SDS011;45708;51.848;107.620;2022-12-31T15:15:47;12.43;;;9.20;;
59828;SDS011;45708;51.848;107.620;2022-12-31T15:26:20;24.27;;;10.73;;
59828;SDS011;45708;51.848;107.620;2022-12-31T15:31:24;9.17;;;3.63;;
59828;SDS011;45708;51.848;107.620;2022-12-31T15:36:27;11.90;;;6.17;;
59828;SDS011;45708;51.848;107.620;2022-12-31T15:41:46;30.30;;;10.63;;
59828;SDS011;45708;51.848;107.620;2022-12-31T15:46:50;6.27;;;5.83;;
59828;SDS011;45708;51.848;107.620;2022-12-31T16:02:32;5.97;;;5.57;;
59828;SDS011;45708;51.848;107.620;2022-12-31T16:07:34;9.23;;;8.27;;
59828;SDS011;45708;51.848;107.620;2022-12-31T16:12:37;17.77;;;10.33;;
59828;SDS011;45708;51.848;107.620;2022-12-31T16:17:39;13.40;;;9.07;;
59828;SDS011;45708;51.848;107.620;2022-12-31T16:22:39;13.20;;;8.13;;
59828;SDS011;45708;51.848;107.620;2022-12-31T16:27:40;22.23;;;11.73;;
59828;SDS011;45708;51.848;107.620;2022-12-31T16:32:41;29.20;;;13.87;;
59828;SDS011;45708;51.848;107.620;2022-12-31T16:37:42;5.07;;;4.67;;
59828;SDS011;45708;51.848;107.620;2022-12-31T16:42:44;10.77;;;9.83;;
59828;SDS011;45708;51.848;107.620;2022-12-31T16:47:46;34.17;;;15.50;;
59828;SDS011;45708;51.848;107.620;2022-12-31T16:52:48;5.10;;;4.90;;
59828;SDS011;45708;51.848;107.620;2022-12-31T16:57:56;7.23;;;2.70;;
59828;SDS011;45708;51.848;107.620;2022-12-31T17:08:42;2.27;;;2.17;;
59828;SDS011;45708;51.848;107.620;2022-12-31T17:13:53;3.27;;;2.13;;
59828;SDS011;45708;51.848;107.620;2022-12-31T17:18:55;2.80;;;2.30;;
59828;SDS011;45708;51.848;107.620;2022-12-31T17:23:59;5.17;;;3.20;;
59828;SDS011;45708;51.848;107.620;2022-12-31T17:29:04;5.82;;;5.40;;
59828;SDS011;45708;51.848;107.620;2022-12-31T17:39:15;9.30;;;5.97;;
59828;SDS011;45708;51.848;107.620;2022-12-31T17:49:43;6.03;;;5.43;;
59828;SDS011;45708;51.848;107.620;2022-12-31T17:54:45;4.20;;;3.30;;
59828;SDS011;45708;51.848;107.620;2022-12-31T17:59:46;4.03;;;3.93;;
59828;SDS011;45708;51.848;107.620;2022-12-31T18:04:46;2.70;;;2.60;;
59828;SDS011;45708;51.848;107.620;2022-12-31T18:09:47;5.63;;;5.23;;
59828;SDS011;45708;51.848;107.620;2022-12-31T18:20:10;3.10;;;2.53;;
59828;SDS011;45708;51.848;107.620;2022-12-31T18:25:16;4.17;;;3.97;;
59828;SDS011;45708;51.848;107.620;2022-12-31T18:30:22;1.30;;;1.30;;
59828;SDS011;45708;51.848;107.620;2022-12-31T18:35:22;3.13;;;2.93;;
59828;SDS011;45708;51.848;107.620;2022-12-31T18:40:23;11.60;;;7.93;;
59828;SDS011;45708;51.848;107.620;2022-12-31T18:45:24;3.77;;;1.13;;
59828;SDS011;45708;51.848;107.620;2022-12-31T18:50:25;6.50;;;5.77;;
59828;SDS011;45708;51.848;107.620;2022-12-31T18:55:35;2.53;;;1.90;;
59828;SDS011;45708;51.848;107.620;2022-12-31T19:00:43;7.25;;;5.75;;
59828;SDS011;45708;51.848;107.620;2022-12-31T19:05:45;7.07;;;3.90;;
59828;SDS011;45708;51.848;107.620;2022-12-31T19:10:46;2.07;;;2.07;;
59828;SDS011;45708;51.848;107.620;2022-12-31T19:15:50;1.63;;;1.63;;
59828;SDS011;45708;51.848;107.620;2022-12-31T19:20:52;2.67;;;1.57;;
59828;SDS011;45708;51.848;107.620;2022-12-31T19:31:16;3.43;;;3.13;;
59828;SDS011;45708;51.848;107.620;2022-12-31T19:36:18;11.77;;;10.43;;
59828;SDS011;45708;51.848;107.620;2022-12-31T19:46:40;20.57;;;15.50;;
59828;SDS011;45708;51.848;107.620;2022-12-31T19:51:41;14.47;;;13.70;;
59828;SDS011;45708;51.848;107.620;2022-12-31T19:56:42;6.97;;;6.27;;
59828;SDS011;45708;51.848;107.620;2022-12-31T20:01:43;5.20;;;4.83;;
59828;SDS011;45708;51.848;107.620;2022-12-31T20:06:44;18.80;;;7.13;;
59828;SDS011;45708;51.848;107.620;2022-12-31T20:11:45;5.10;;;4.90;;
59828;SDS011;45708;51.848;107.620;2022-12-31T20:16:45;4.60;;;4.30;;
59828;SDS011;45708;51.848;107.620;2022-12-31T20:21:46;4.20;;;3.90;;
59828;SDS011;45708;51.848;107.620;2022-12-31T20:26:47;2.77;;;2.67;;
59828;SDS011;45708;51.848;107.620;2022-12-31T20:31:48;6.33;;;4.87;;
59828;SDS011;45708;51.848;107.620;2022-12-31T20:36:49;7.57;;;6.00;;
59828;SDS011;45708;51.848;107.620;2022-12-31T20:41:49;1.37;;;1.37;;
59828;SDS011;45708;51.848;107.620;2022-12-31T20:46:50;7.03;;;6.50;;
59828;SDS011;45708;51.848;107.620;2022-12-31T20:51:51;3.80;;;2.93;;
59828;SDS011;45708;51.848;107.620;2022-12-31T20:56:52;11.00;;;6.97;;
59828;SDS011;45708;51.848;107.620;2022-12-31T21:01:53;7.97;;;4.77;;
59828;SDS011;45708;51.848;107.620;2022-12-31T21:06:53;7.17;;;5.10;;
59828;SDS011;45708;51.848;107.620;2022-12-31T21:11:54;9.83;;;8.90;;
59828;SDS011;45708;51.848;107.620;2022-12-31T21:16:55;2.13;;;2.03;;
59828;SDS011;45708;51.848;107.620;2022-12-31T21:21:56;14.80;;;7.20;;
59828;SDS011;45708;51.848;107.620;2022-12-31T21:26:57;3.57;;;3.17;;
59828;SDS011;45708;51.848;107.620;2022-12-31T21:31:57;4.33;;;4.00;;
59828;SDS011;45708;51.848;107.620;2022-12-31T21:37:17;6.47;;;2.47;;
59828;SDS011;45708;51.848;107.620;2022-12-31T21:42:19;4.53;;;4.30;;
59828;SDS011;45708;51.848;107.620;2022-12-31T21:47:20;14.77;;;7.83;;
59828;SDS011;45708;51.848;107.620;2022-12-31T21:52:21;9.60;;;7.97;;
59828;SDS011;45708;51.848;107.620;2022-12-31T21:57:22;7.57;;;4.10;;
59828;SDS011;45708;51.848;107.620;2022-12-31T22:02:22;41.60;;;16.53;;
59828;SDS011;45708;51.848;107.620;2022-12-31T22:07:23;20.40;;;11.63;;
59828;SDS011;45708;51.848;107.620;2022-12-31T22:12:24;15.20;;;6.90;;
59828;SDS011;45708;51.848;107.620;2022-12-31T22:17:25;13.77;;;6.97;;
59828;SDS011;45708;51.848;107.620;2022-12-31T22:22:26;12.63;;;7.37;;
59828;SDS011;45708;51.848;107.620;2022-12-31T22:27:27;1.17;;;1.07;;
59828;SDS011;45708;51.848;107.620;2022-12-31T22:32:27;10.13;;;3.27;;
59828;SDS011;45708;51.848;107.620;2022-12-31T22:37:28;1.43;;;1.43;;
59828;SDS011;45708;51.848;107.620;2022-12-31T22:42:29;6.87;;;4.03;;
59828;SDS011;45708;51.848;107.620;2022-12-31T22:47:30;1.60;;;1.53;;
59828;SDS011;45708;51.848;107.620;2022-12-31T22:52:31;6.33;;;4.00;;
59828;SDS011;45708;51.848;107.620;2022-12-31T22:57:32;2.77;;;2.57;;
59828;SDS011;45708;51.848;107.620;2022-12-31T23:02:33;28.33;;;6.50;;
59828;SDS011;45708;51.848;107.620;2022-12-31T23:07:33;18.57;;;13.80;;
59828;SDS011;45708;51.848;107.620;2022-12-31T23:12:34;14.33;;;8.87;;
59828;SDS011;45708;51.848;107.620;2022-12-31T23:17:35;24.67;;;11.83;;
59828;SDS011;45708;51.848;107.620;2022-12-31T23:22:36;24.07;;;12.77;;
59828;SDS011;45708;51.848;107.620;2022-12-31T23:27:36;8.20;;;3.90;;
59828;SDS011;45708;51.848;107.620;2022-12-31T23:32:37;2.50;;;2.37;;
59828;SDS011;45708;51.848;107.620;2022-12-31T23:37:57;15.77;;;5.47;;
59828;SDS011;45708;51.848;107.620;2022-12-31T23:42:57;1.43;;;1.30;;
59828;SDS011;45708;51.848;107.620;2022-12-31T23:48:07;2.80;;;2.17;;
59828;SDS011;45708;51.848;107.620;2022-12-31T23:53:08;4.23;;;2.17;;
59828;SDS011;45708;51.848;107.620;2022-12-31T23:58:27;5.30;;;2.93;;
